カラカス の空港の天気 - METARとTAF

シモン・ボリバー空港(バルガス) ( SVMI / CCS ) - ベネズエラ バルガス州、Maiquetia (カラカス近郊)
飛行場実況気象(Metar)
観測時間09/27 20:03 VET (09/28 00:03 UTC)
風向・風速東北東 2m/s
視程-
天気現象
なし
気温-
湿度-
気圧1011hPa
METARSVMI 280003Z AUTO 06003KT NCD ///// Q1011
過去の天気等 Google飛行場航空写真 Wunderground天気予報

過去48時間のMETAR

飛行場予報(TAF)
発表時間: 9/27 18:00 VET (9/27 22:00 UTC)
予報対象時間: 27日20時 VET ~ 28日20時 VET
風向・風速東 2m/s
視程10km以上
全天の8割程度の雲 雲底高度 490m
27日21時 VET ~ 27日24時 VET に一時的に
風向・風速東 3m/s
視程9000m
天気現象霧雨
全天の4割程度の雲 雲底高度 2130m
全天の8割程度の雲 雲底高度 490m
TAF SVMI 272200Z 2800/2900 08003KT 9999 BKN016 TX32/2818Z TN21/2807Z
TEMPO 2801/2804 09005KT 9000 DZ SCT070 BKN016